sensor_id;sensor_type;location;lat;lon;timestamp;temperature;humidity
71082;SHT31;58740;50.672;18.690;2022-07-21T00:00:52;23.35;51.97
71082;SHT31;58740;50.672;18.690;2022-07-21T00:03:20;23.34;51.94
71082;SHT31;58740;50.672;18.690;2022-07-21T00:05:48;23.35;51.73
71082;SHT31;58740;50.672;18.690;2022-07-21T00:08:15;23.34;51.86
71082;SHT31;58740;50.672;18.690;2022-07-21T00:10:43;23.33;51.95
71082;SHT31;58740;50.672;18.690;2022-07-21T00:13:11;23.32;51.83
71082;SHT31;58740;50.672;18.690;2022-07-21T00:15:38;23.27;51.87
71082;SHT31;58740;50.672;18.690;2022-07-21T00:18:06;23.24;51.93
71082;SHT31;58740;50.672;18.690;2022-07-21T00:20:34;23.21;52.01
71082;SHT31;58740;50.672;18.690;2022-07-21T00:23:02;23.18;51.95
71082;SHT31;58740;50.672;18.690;2022-07-21T00:25:30;23.17;51.99
71082;SHT31;58740;50.672;18.690;2022-07-21T00:28:02;23.13;52.06
71082;SHT31;58740;50.672;18.690;2022-07-21T00:30:32;23.12;52.14
71082;SHT31;58740;50.672;18.690;2022-07-21T00:33:00;23.10;52.23
71082;SHT31;58740;50.672;18.690;2022-07-21T00:35:28;23.08;52.22
71082;SHT31;58740;50.672;18.690;2022-07-21T00:37:56;23.06;52.25
71082;SHT31;58740;50.672;18.690;2022-07-21T00:40:24;23.05;52.21
71082;SHT31;58740;50.672;18.690;2022-07-21T00:42:52;23.05;52.12
71082;SHT31;58740;50.672;18.690;2022-07-21T00:45:20;23.05;52.03
71082;SHT31;58740;50.672;18.690;2022-07-21T00:47:48;23.04;52.04
71082;SHT31;58740;50.672;18.690;2022-07-21T00:50:17;23.03;52.04
71082;SHT31;58740;50.672;18.690;2022-07-21T00:52:47;23.02;52.10
71082;SHT31;58740;50.672;18.690;2022-07-21T00:55:18;23.01;52.29
71082;SHT31;58740;50.672;18.690;2022-07-21T00:57:49;23.01;52.40
71082;SHT31;58740;50.672;18.690;2022-07-21T01:00:20;23.02;52.37
71082;SHT31;58740;50.672;18.690;2022-07-21T01:02:55;23.01;52.76
71082;SHT31;58740;50.672;18.690;2022-07-21T01:05:25;23.01;52.66
71082;SHT31;58740;50.672;18.690;2022-07-21T01:07:54;22.99;52.48
71082;SHT31;58740;50.672;18.690;2022-07-21T01:10:23;22.98;52.33
71082;SHT31;58740;50.672;18.690;2022-07-21T01:12:52;22.98;52.22
71082;SHT31;58740;50.672;18.690;2022-07-21T01:15:20;22.97;52.24
71082;SHT31;58740;50.672;18.690;2022-07-21T01:17:49;22.95;52.20
71082;SHT31;58740;50.672;18.690;2022-07-21T01:20:19;22.96;52.48
71082;SHT31;58740;50.672;18.690;2022-07-21T01:22:50;22.98;52.46
71082;SHT31;58740;50.672;18.690;2022-07-21T01:25:21;23.00;52.37
71082;SHT31;58740;50.672;18.690;2022-07-21T01:27:49;22.99;52.29
71082;SHT31;58740;50.672;18.690;2022-07-21T01:30:17;22.98;52.34
71082;SHT31;58740;50.672;18.690;2022-07-21T01:32:45;22.95;52.26
71082;SHT31;58740;50.672;18.690;2022-07-21T01:35:14;22.93;52.34
71082;SHT31;58740;50.672;18.690;2022-07-21T01:37:45;22.93;52.43
71082;SHT31;58740;50.672;18.690;2022-07-21T01:40:15;22.89;52.48
71082;SHT31;58740;50.672;18.690;2022-07-21T01:43:14;22.82;52.50
71082;SHT31;58740;50.672;18.690;2022-07-21T01:45:41;22.77;52.60
71082;SHT31;58740;50.672;18.690;2022-07-21T01:48:09;22.72;52.70
71082;SHT31;58740;50.672;18.690;2022-07-21T01:50:37;22.70;52.93
71082;SHT31;58740;50.672;18.690;2022-07-21T01:53:05;22.69;52.82
71082;SHT31;58740;50.672;18.690;2022-07-21T01:55:34;22.65;52.87
71082;SHT31;58740;50.672;18.690;2022-07-21T01:58:02;22.64;53.06
71082;SHT31;58740;50.672;18.690;2022-07-21T02:00:30;22.64;53.11
71082;SHT31;58740;50.672;18.690;2022-07-21T02:02:57;22.62;53.20
71082;SHT31;58740;50.672;18.690;2022-07-21T02:05:25;22.64;53.39
71082;SHT31;58740;50.672;18.690;2022-07-21T02:07:52;22.63;53.10
71082;SHT31;58740;50.672;18.690;2022-07-21T02:10:20;22.58;53.06
71082;SHT31;58740;50.672;18.690;2022-07-21T02:12:48;22.55;53.19
71082;SHT31;58740;50.672;18.690;2022-07-21T02:15:16;22.53;53.25
71082;SHT31;58740;50.672;18.690;2022-07-21T02:17:43;22.52;53.27
71082;SHT31;58740;50.672;18.690;2022-07-21T02:20:11;22.52;53.53
71082;SHT31;58740;50.672;18.690;2022-07-21T02:22:39;22.53;53.46
71082;SHT31;58740;50.672;18.690;2022-07-21T02:25:07;22.51;53.30
71082;SHT31;58740;50.672;18.690;2022-07-21T02:27:34;22.48;53.20
71082;SHT31;58740;50.672;18.690;2022-07-21T02:30:02;22.45;53.27
71082;SHT31;58740;50.672;18.690;2022-07-21T02:32:31;22.42;53.14
71082;SHT31;58740;50.672;18.690;2022-07-21T02:34:58;22.39;53.42
71082;SHT31;58740;50.672;18.690;2022-07-21T02:37:27;22.38;53.35
71082;SHT31;58740;50.672;18.690;2022-07-21T02:39:55;22.36;53.32
71082;SHT31;58740;50.672;18.690;2022-07-21T02:42:23;22.36;53.61
71082;SHT31;58740;50.672;18.690;2022-07-21T02:44:51;22.38;53.42
71082;SHT31;58740;50.672;18.690;2022-07-21T02:47:18;22.36;53.38
71082;SHT31;58740;50.672;18.690;2022-07-21T02:49:46;22.35;53.29
71082;SHT31;58740;50.672;18.690;2022-07-21T02:52:14;22.35;53.44
71082;SHT31;58740;50.672;18.690;2022-07-21T02:54:43;22.36;53.39
71082;SHT31;58740;50.672;18.690;2022-07-21T02:57:11;22.37;53.47
71082;SHT31;58740;50.672;18.690;2022-07-21T02:59:41;22.38;53.46
71082;SHT31;58740;50.672;18.690;2022-07-21T03:02:08;22.38;53.37
71082;SHT31;58740;50.672;18.690;2022-07-21T03:04:36;22.35;53.33
71082;SHT31;58740;50.672;18.690;2022-07-21T03:07:04;22.34;53.30
71082;SHT31;58740;50.672;18.690;2022-07-21T03:09:32;22.33;53.51
71082;SHT31;58740;50.672;18.690;2022-07-21T03:11:59;22.33;53.41
71082;SHT31;58740;50.672;18.690;2022-07-21T03:14:27;22.28;53.36
71082;SHT31;58740;50.672;18.690;2022-07-21T03:16:54;22.25;53.62
71082;SHT31;58740;50.672;18.690;2022-07-21T03:19:25;22.23;53.59
71082;SHT31;58740;50.672;18.690;2022-07-21T03:21:52;22.19;53.62
71082;SHT31;58740;50.672;18.690;2022-07-21T03:24:20;22.19;53.78
71082;SHT31;58740;50.672;18.690;2022-07-21T03:26:48;22.18;53.75
71082;SHT31;58740;50.672;18.690;2022-07-21T03:29:16;22.17;53.79
71082;SHT31;58740;50.672;18.690;2022-07-21T03:31:44;22.16;53.90
71082;SHT31;58740;50.672;18.690;2022-07-21T03:34:11;22.18;53.98
71082;SHT31;58740;50.672;18.690;2022-07-21T03:36:39;22.18;54.13
71082;SHT31;58740;50.672;18.690;2022-07-21T03:39:07;22.18;54.03
71082;SHT31;58740;50.672;18.690;2022-07-21T03:41:35;22.18;54.18
71082;SHT31;58740;50.672;18.690;2022-07-21T03:44:02;22.16;54.19
71082;SHT31;58740;50.672;18.690;2022-07-21T03:46:30;22.14;54.36
71082;SHT31;58740;50.672;18.690;2022-07-21T03:48:58;22.16;54.56
71082;SHT31;58740;50.672;18.690;2022-07-21T03:51:27;22.18;54.74
71082;SHT31;58740;50.672;18.690;2022-07-21T03:53:55;22.19;54.67
71082;SHT31;58740;50.672;18.690;2022-07-21T03:56:22;22.22;54.15
71082;SHT31;58740;50.672;18.690;2022-07-21T03:58:50;22.23;54.37
71082;SHT31;58740;50.672;18.690;2022-07-21T04:01:18;22.26;54.14
71082;SHT31;58740;50.672;18.690;2022-07-21T04:03:46;22.28;54.39
71082;SHT31;58740;50.672;18.690;2022-07-21T04:06:16;22.30;54.47
71082;SHT31;58740;50.672;18.690;2022-07-21T04:08:44;22.31;54.45
71082;SHT31;58740;50.672;18.690;2022-07-21T04:11:12;22.33;54.30
71082;SHT31;58740;50.672;18.690;2022-07-21T04:13:40;22.35;54.45
71082;SHT31;58740;50.672;18.690;2022-07-21T04:16:08;22.37;54.34
71082;SHT31;58740;50.672;18.690;2022-07-21T04:18:36;22.40;54.56
71082;SHT31;58740;50.672;18.690;2022-07-21T04:21:04;22.42;54.39
71082;SHT31;58740;50.672;18.690;2022-07-21T04:23:31;22.42;54.12
71082;SHT31;58740;50.672;18.690;2022-07-21T04:26:00;22.44;54.12
71082;SHT31;58740;50.672;18.690;2022-07-21T04:28:28;22.47;54.17
71082;SHT31;58740;50.672;18.690;2022-07-21T04:30:55;22.49;54.13
71082;SHT31;58740;50.672;18.690;2022-07-21T04:33:23;22.53;54.20
71082;SHT31;58740;50.672;18.690;2022-07-21T04:35:51;22.58;54.18
71082;SHT31;58740;50.672;18.690;2022-07-21T04:38:19;22.60;54.11
71082;SHT31;58740;50.672;18.690;2022-07-21T04:40:46;22.62;54.27
71082;SHT31;58740;50.672;18.690;2022-07-21T04:43:14;22.66;54.44
71082;SHT31;58740;50.672;18.690;2022-07-21T04:45:44;22.69;54.19
71082;SHT31;58740;50.672;18.690;2022-07-21T04:48:11;22.70;54.06
71082;SHT31;58740;50.672;18.690;2022-07-21T04:50:39;22.72;54.06
71082;SHT31;58740;50.672;18.690;2022-07-21T04:53:07;22.78;54.01
71082;SHT31;58740;50.672;18.690;2022-07-21T04:55:35;22.83;54.21
71082;SHT31;58740;50.672;18.690;2022-07-21T04:58:03;22.87;54.19
71082;SHT31;58740;50.672;18.690;2022-07-21T05:00:30;22.89;54.23
71082;SHT31;58740;50.672;18.690;2022-07-21T05:02:58;22.91;54.27
71082;SHT31;58740;50.672;18.690;2022-07-21T05:05:26;22.95;54.34
71082;SHT31;58740;50.672;18.690;2022-07-21T05:07:54;23.01;54.24
71082;SHT31;58740;50.672;18.690;2022-07-21T05:10:22;23.06;54.01
71082;SHT31;58740;50.672;18.690;2022-07-21T05:12:50;23.10;53.84
71082;SHT31;58740;50.672;18.690;2022-07-21T05:15:18;23.15;53.94
71082;SHT31;58740;50.672;18.690;2022-07-21T05:17:46;23.23;53.86
71082;SHT31;58740;50.672;18.690;2022-07-21T05:20:13;23.32;53.72
71082;SHT31;58740;50.672;18.690;2022-07-21T05:22:41;23.40;53.68
71082;SHT31;58740;50.672;18.690;2022-07-21T05:25:09;23.46;53.49
71082;SHT31;58740;50.672;18.690;2022-07-21T05:27:37;23.53;53.46
71082;SHT31;58740;50.672;18.690;2022-07-21T05:30:05;23.60;53.29
71082;SHT31;58740;50.672;18.690;2022-07-21T05:32:34;23.67;53.27
71082;SHT31;58740;50.672;18.690;2022-07-21T05:35:02;23.73;53.19
71082;SHT31;58740;50.672;18.690;2022-07-21T05:37:35;23.82;53.16
71082;SHT31;58740;50.672;18.690;2022-07-21T05:40:05;23.89;52.64
71082;SHT31;58740;50.672;18.690;2022-07-21T05:42:35;23.95;52.63
71082;SHT31;58740;50.672;18.690;2022-07-21T05:45:03;24.05;52.37
71082;SHT31;58740;50.672;18.690;2022-07-21T05:47:32;24.15;52.12
71082;SHT31;58740;50.672;18.690;2022-07-21T05:49:59;24.23;51.74
71082;SHT31;58740;50.672;18.690;2022-07-21T05:52:28;24.32;51.44
71082;SHT31;58740;50.672;18.690;2022-07-21T05:54:56;24.44;51.44
71082;SHT31;58740;50.672;18.690;2022-07-21T05:57:23;24.56;51.47
71082;SHT31;58740;50.672;18.690;2022-07-21T05:59:51;24.69;51.23
71082;SHT31;58740;50.672;18.690;2022-07-21T06:02:19;24.82;50.94
71082;SHT31;58740;50.672;18.690;2022-07-21T06:04:47;24.98;50.58
71082;SHT31;58740;50.672;18.690;2022-07-21T06:07:16;25.15;50.48
71082;SHT31;58740;50.672;18.690;2022-07-21T06:09:44;25.30;50.06
71082;SHT31;58740;50.672;18.690;2022-07-21T06:12:12;25.42;49.61
71082;SHT31;58740;50.672;18.690;2022-07-21T06:14:39;25.56;49.74
71082;SHT31;58740;50.672;18.690;2022-07-21T06:17:07;25.68;49.48
71082;SHT31;58740;50.672;18.690;2022-07-21T06:19:35;25.83;49.22
71082;SHT31;58740;50.672;18.690;2022-07-21T06:22:03;25.93;49.03
71082;SHT31;58740;50.672;18.690;2022-07-21T06:24:31;26.05;48.57
71082;SHT31;58740;50.672;18.690;2022-07-21T06:26:59;26.16;47.89
71082;SHT31;58740;50.672;18.690;2022-07-21T06:29:32;26.26;47.70
71082;SHT31;58740;50.672;18.690;2022-07-21T06:32:00;26.37;46.76
71082;SHT31;58740;50.672;18.690;2022-07-21T06:34:28;26.44;46.27
71082;SHT31;58740;50.672;18.690;2022-07-21T06:36:56;26.47;46.72
71082;SHT31;58740;50.672;18.690;2022-07-21T06:39:24;26.55;46.50
71082;SHT31;58740;50.672;18.690;2022-07-21T06:41:51;26.61;46.35
71082;SHT31;58740;50.672;18.690;2022-07-21T06:44:19;26.66;46.21
71082;SHT31;58740;50.672;18.690;2022-07-21T06:46:47;26.74;47.13
71082;SHT31;58740;50.672;18.690;2022-07-21T06:49:14;26.83;46.38
71082;SHT31;58740;50.672;18.690;2022-07-21T06:51:42;26.91;46.00
71082;SHT31;58740;50.672;18.690;2022-07-21T06:54:10;26.99;46.21
71082;SHT31;58740;50.672;18.690;2022-07-21T06:56:37;27.05;45.68
71082;SHT31;58740;50.672;18.690;2022-07-21T06:59:05;27.14;46.12
71082;SHT31;58740;50.672;18.690;2022-07-21T07:01:33;27.28;46.10
71082;SHT31;58740;50.672;18.690;2022-07-21T07:04:03;27.41;45.43
71082;SHT31;58740;50.672;18.690;2022-07-21T07:06:32;27.53;45.49
71082;SHT31;58740;50.672;18.690;2022-07-21T07:09:00;27.67;45.72
71082;SHT31;58740;50.672;18.690;2022-07-21T07:11:28;27.80;45.46
71082;SHT31;58740;50.672;18.690;2022-07-21T07:13:55;27.90;44.84
71082;SHT31;58740;50.672;18.690;2022-07-21T07:16:38;28.00;44.65
71082;SHT31;58740;50.672;18.690;2022-07-21T07:19:06;28.05;44.42
71082;SHT31;58740;50.672;18.690;2022-07-21T07:21:35;28.08;44.06
71082;SHT31;58740;50.672;18.690;2022-07-21T07:24:03;28.13;43.98
71082;SHT31;58740;50.672;18.690;2022-07-21T07:26:32;28.17;44.13
71082;SHT31;58740;50.672;18.690;2022-07-21T07:28:59;28.23;43.81
71082;SHT31;58740;50.672;18.690;2022-07-21T07:31:27;28.27;43.26
71082;SHT31;58740;50.672;18.690;2022-07-21T07:33:55;28.29;42.76
71082;SHT31;58740;50.672;18.690;2022-07-21T07:36:26;28.33;42.81
71082;SHT31;58740;50.672;18.690;2022-07-21T07:38:56;28.41;42.39
71082;SHT31;58740;50.672;18.690;2022-07-21T07:41:25;28.46;41.76
71082;SHT31;58740;50.672;18.690;2022-07-21T07:43:54;28.51;41.82
71082;SHT31;58740;50.672;18.690;2022-07-21T07:46:23;28.59;41.57
71082;SHT31;58740;50.672;18.690;2022-07-21T07:48:51;28.67;41.42
71082;SHT31;58740;50.672;18.690;2022-07-21T07:51:19;28.74;41.23
71082;SHT31;58740;50.672;18.690;2022-07-21T07:53:47;28.80;41.07
71082;SHT31;58740;50.672;18.690;2022-07-21T07:56:14;28.87;40.77
71082;SHT31;58740;50.672;18.690;2022-07-21T07:58:42;28.95;40.75
71082;SHT31;58740;50.672;18.690;2022-07-21T08:01:10;29.02;40.98
71082;SHT31;58740;50.672;18.690;2022-07-21T08:03:41;29.07;40.45
71082;SHT31;58740;50.672;18.690;2022-07-21T08:06:08;29.12;40.50
71082;SHT31;58740;50.672;18.690;2022-07-21T08:08:36;29.18;40.72
71082;SHT31;58740;50.672;18.690;2022-07-21T08:11:04;29.25;40.73
71082;SHT31;58740;50.672;18.690;2022-07-21T08:13:32;29.29;40.54
71082;SHT31;58740;50.672;18.690;2022-07-21T08:16:00;29.36;40.28
71082;SHT31;58740;50.672;18.690;2022-07-21T08:18:28;29.40;40.02
71082;SHT31;58740;50.672;18.690;2022-07-21T08:20:55;29.48;39.87
71082;SHT31;58740;50.672;18.690;2022-07-21T08:23:23;29.56;39.45
71082;SHT31;58740;50.672;18.690;2022-07-21T08:25:51;29.60;39.95
71082;SHT31;58740;50.672;18.690;2022-07-21T08:28:19;29.69;39.12
71082;SHT31;58740;50.672;18.690;2022-07-21T08:30:46;29.72;38.58
71082;SHT31;58740;50.672;18.690;2022-07-21T08:33:14;29.74;38.48
71082;SHT31;58740;50.672;18.690;2022-07-21T08:35:42;29.75;38.15
71082;SHT31;58740;50.672;18.690;2022-07-21T08:38:10;29.80;37.91
71082;SHT31;58740;50.672;18.690;2022-07-21T08:40:42;29.82;37.82
71082;SHT31;58740;50.672;18.690;2022-07-21T08:43:13;29.87;37.76
71082;SHT31;58740;50.672;18.690;2022-07-21T08:45:41;29.93;38.20
71082;SHT31;58740;50.672;18.690;2022-07-21T08:48:10;29.97;38.18
71082;SHT31;58740;50.672;18.690;2022-07-21T08:50:38;29.99;37.32
71082;SHT31;58740;50.672;18.690;2022-07-21T08:53:07;30.03;37.43
71082;SHT31;58740;50.672;18.690;2022-07-21T08:55:36;30.07;37.59
71082;SHT31;58740;50.672;18.690;2022-07-21T08:58:08;30.07;37.51
71082;SHT31;58740;50.672;18.690;2022-07-21T09:00:40;30.07;37.27
71082;SHT31;58740;50.672;18.690;2022-07-21T09:05:59;30.14;36.58
71082;SHT31;58740;50.672;18.690;2022-07-21T09:11:24;30.25;36.67
71082;SHT31;58740;50.672;18.690;2022-07-21T09:14:09;30.31;36.64
71082;SHT31;58740;50.672;18.690;2022-07-21T09:16:40;30.38;36.98
71082;SHT31;58740;50.672;18.690;2022-07-21T09:19:18;30.42;36.55
71082;SHT31;58740;50.672;18.690;2022-07-21T09:21:55;30.41;36.01
71082;SHT31;58740;50.672;18.690;2022-07-21T09:27:03;30.49;35.18
71082;SHT31;58740;50.672;18.690;2022-07-21T09:29:41;30.56;35.03
71082;SHT31;58740;50.672;18.690;2022-07-21T09:32:27;30.66;33.90
71082;SHT31;58740;50.672;18.690;2022-07-21T09:35:09;30.74;33.62
71082;SHT31;58740;50.672;18.690;2022-07-21T09:37:41;30.82;33.85
71082;SHT31;58740;50.672;18.690;2022-07-21T09:40:11;30.90;33.80
71082;SHT31;58740;50.672;18.690;2022-07-21T09:42:50;30.93;34.16
71082;SHT31;58740;50.672;18.690;2022-07-21T09:45:20;30.93;33.81
71082;SHT31;58740;50.672;18.690;2022-07-21T09:47:48;30.98;33.45
71082;SHT31;58740;50.672;18.690;2022-07-21T09:50:16;31.04;33.23
71082;SHT31;58740;50.672;18.690;2022-07-21T09:52:55;31.10;31.90
71082;SHT31;58740;50.672;18.690;2022-07-21T09:55:26;31.16;31.18
71082;SHT31;58740;50.672;18.690;2022-07-21T09:57:56;31.16;31.88
71082;SHT31;58740;50.672;18.690;2022-07-21T10:00:26;31.17;32.45
71082;SHT31;58740;50.672;18.690;2022-07-21T10:02:54;31.24;32.60
71082;SHT31;58740;50.672;18.690;2022-07-21T10:05:24;31.28;32.47
71082;SHT31;58740;50.672;18.690;2022-07-21T10:08:00;31.32;32.07
71082;SHT31;58740;50.672;18.690;2022-07-21T10:10:34;31.33;31.91
71082;SHT31;58740;50.672;18.690;2022-07-21T10:13:22;31.32;32.09
71082;SHT31;58740;50.672;18.690;2022-07-21T10:15:51;31.32;32.53
71082;SHT31;58740;50.672;18.690;2022-07-21T10:18:21;31.31;32.30
71082;SHT31;58740;50.672;18.690;2022-07-21T10:21:21;31.32;32.53
71082;SHT31;58740;50.672;18.690;2022-07-21T10:23:55;31.38;32.61
71082;SHT31;58740;50.672;18.690;2022-07-21T10:26:23;31.44;32.18
71082;SHT31;58740;50.672;18.690;2022-07-21T10:28:51;31.48;32.44
71082;SHT31;58740;50.672;18.690;2022-07-21T10:31:20;31.50;32.02
71082;SHT31;58740;50.672;18.690;2022-07-21T10:33:52;31.56;31.81
71082;SHT31;58740;50.672;18.690;2022-07-21T10:41:40;31.60;32.35
71082;SHT31;58740;50.672;18.690;2022-07-21T10:57:37;31.84;31.68
71082;SHT31;58740;50.672;18.690;2022-07-21T11:00:22;31.86;31.67
71082;SHT31;58740;50.672;18.690;2022-07-21T11:02:58;31.82;31.49
71082;SHT31;58740;50.672;18.690;2022-07-21T11:05:33;31.81;31.63
71082;SHT31;58740;50.672;18.690;2022-07-21T11:08:16;31.81;31.80
71082;SHT31;58740;50.672;18.690;2022-07-21T11:10:50;31.85;31.03
71082;SHT31;58740;50.672;18.690;2022-07-21T11:13:21;31.88;31.17
71082;SHT31;58740;50.672;18.690;2022-07-21T11:18:29;31.89;30.99
71082;SHT31;58740;50.672;18.690;2022-07-21T11:21:10;31.87;30.97
71082;SHT31;58740;50.672;18.690;2022-07-21T11:23:46;31.86;30.47
71082;SHT31;58740;50.672;18.690;2022-07-21T11:26:18;31.92;30.60
71082;SHT31;58740;50.672;18.690;2022-07-21T11:29:05;31.96;30.37
71082;SHT31;58740;50.672;18.690;2022-07-21T11:31:44;32.00;31.12
71082;SHT31;58740;50.672;18.690;2022-07-21T11:34:14;32.03;31.14
71082;SHT31;58740;50.672;18.690;2022-07-21T11:36:41;32.08;31.20
71082;SHT31;58740;50.672;18.690;2022-07-21T11:39:10;32.12;31.42
71082;SHT31;58740;50.672;18.690;2022-07-21T11:41:41;32.13;31.38
71082;SHT31;58740;50.672;18.690;2022-07-21T11:44:10;32.13;31.28
71082;SHT31;58740;50.672;18.690;2022-07-21T11:46:45;32.15;31.43
71082;SHT31;58740;50.672;18.690;2022-07-21T11:49:22;32.15;31.46
71082;SHT31;58740;50.672;18.690;2022-07-21T11:54:28;32.16;32.09
71082;SHT31;58740;50.672;18.690;2022-07-21T11:56:59;32.17;31.80
71082;SHT31;58740;50.672;18.690;2022-07-21T11:59:30;32.17;32.00
71082;SHT31;58740;50.672;18.690;2022-07-21T12:02:01;32.19;31.91
71082;SHT31;58740;50.672;18.690;2022-07-21T12:04:36;32.19;31.69
71082;SHT31;58740;50.672;18.690;2022-07-21T12:07:19;32.15;31.08
71082;SHT31;58740;50.672;18.690;2022-07-21T12:10:00;32.16;31.80
71082;SHT31;58740;50.672;18.690;2022-07-21T12:12:46;32.20;31.95
71082;SHT31;58740;50.672;18.690;2022-07-21T12:15:21;32.27;31.34
71082;SHT31;58740;50.672;18.690;2022-07-21T12:18:03;32.31;31.35
71082;SHT31;58740;50.672;18.690;2022-07-21T12:20:38;32.33;31.38
71082;SHT31;58740;50.672;18.690;2022-07-21T12:25:47;32.36;31.92
71082;SHT31;58740;50.672;18.690;2022-07-21T12:28:40;32.44;31.00
71082;SHT31;58740;50.672;18.690;2022-07-21T12:31:12;32.49;31.25
71082;SHT31;58740;50.672;18.690;2022-07-21T12:33:44;32.49;31.39
71082;SHT31;58740;50.672;18.690;2022-07-21T12:36:33;32.47;31.89
71082;SHT31;58740;50.672;18.690;2022-07-21T12:39:12;32.53;31.98
71082;SHT31;58740;50.672;18.690;2022-07-21T12:42:31;32.55;31.69
71082;SHT31;58740;50.672;18.690;2022-07-21T12:45:13;32.57;31.19
71082;SHT31;58740;50.672;18.690;2022-07-21T12:48:07;32.55;31.30
71082;SHT31;58740;50.672;18.690;2022-07-21T12:50:38;32.54;31.54
71082;SHT31;58740;50.672;18.690;2022-07-21T12:53:10;32.58;31.54
71082;SHT31;58740;50.672;18.690;2022-07-21T12:55:39;32.58;31.28
71082;SHT31;58740;50.672;18.690;2022-07-21T12:58:07;32.56;31.22
71082;SHT31;58740;50.672;18.690;2022-07-21T13:00:35;32.60;31.21
71082;SHT31;58740;50.672;18.690;2022-07-21T13:03:02;32.67;31.15
71082;SHT31;58740;50.672;18.690;2022-07-21T13:05:30;32.71;30.82
71082;SHT31;58740;50.672;18.690;2022-07-21T13:07:58;32.74;30.41
71082;SHT31;58740;50.672;18.690;2022-07-21T13:10:26;32.76;30.77
71082;SHT31;58740;50.672;18.690;2022-07-21T13:12:54;32.76;30.86
71082;SHT31;58740;50.672;18.690;2022-07-21T13:15:22;32.74;30.81
71082;SHT31;58740;50.672;18.690;2022-07-21T13:17:51;32.73;30.81
71082;SHT31;58740;50.672;18.690;2022-07-21T13:20:18;32.76;30.75
71082;SHT31;58740;50.672;18.690;2022-07-21T13:22:46;32.81;30.83
71082;SHT31;58740;50.672;18.690;2022-07-21T13:25:14;32.84;30.54
71082;SHT31;58740;50.672;18.690;2022-07-21T13:27:41;32.85;30.56
71082;SHT31;58740;50.672;18.690;2022-07-21T13:30:15;32.87;29.12
71082;SHT31;58740;50.672;18.690;2022-07-21T13:32:44;32.91;28.66
71082;SHT31;58740;50.672;18.690;2022-07-21T13:35:12;32.92;27.73
71082;SHT31;58740;50.672;18.690;2022-07-21T13:37:53;32.97;28.18
71082;SHT31;58740;50.672;18.690;2022-07-21T13:40:23;33.00;29.05
71082;SHT31;58740;50.672;18.690;2022-07-21T13:43:13;33.03;27.29
71082;SHT31;58740;50.672;18.690;2022-07-21T13:46:03;33.08;26.79
71082;SHT31;58740;50.672;18.690;2022-07-21T13:48:32;33.08;27.39
71082;SHT31;58740;50.672;18.690;2022-07-21T13:51:09;33.05;27.86
71082;SHT31;58740;50.672;18.690;2022-07-21T13:53:42;33.04;26.73
71082;SHT31;58740;50.672;18.690;2022-07-21T13:56:12;33.06;26.58
71082;SHT31;58740;50.672;18.690;2022-07-21T13:58:40;33.08;25.92
71082;SHT31;58740;50.672;18.690;2022-07-21T14:01:09;33.09;25.86
71082;SHT31;58740;50.672;18.690;2022-07-21T14:03:41;33.09;26.11
71082;SHT31;58740;50.672;18.690;2022-07-21T14:06:10;33.08;26.19
71082;SHT31;58740;50.672;18.690;2022-07-21T14:08:38;33.06;26.77
71082;SHT31;58740;50.672;18.690;2022-07-21T14:11:07;33.05;27.31
71082;SHT31;58740;50.672;18.690;2022-07-21T14:13:36;33.06;27.31
71082;SHT31;58740;50.672;18.690;2022-07-21T14:16:04;33.06;27.11
71082;SHT31;58740;50.672;18.690;2022-07-21T14:18:32;33.03;26.99
71082;SHT31;58740;50.672;18.690;2022-07-21T14:21:00;33.02;27.30
71082;SHT31;58740;50.672;18.690;2022-07-21T14:23:30;33.02;27.06
71082;SHT31;58740;50.672;18.690;2022-07-21T14:25:58;33.02;27.42
71082;SHT31;58740;50.672;18.690;2022-07-21T14:28:27;33.03;27.66
71082;SHT31;58740;50.672;18.690;2022-07-21T14:30:55;33.01;27.68
71082;SHT31;58740;50.672;18.690;2022-07-21T14:33:27;32.99;27.51
71082;SHT31;58740;50.672;18.690;2022-07-21T14:35:57;32.99;27.41
71082;SHT31;58740;50.672;18.690;2022-07-21T14:38:25;33.01;27.17
71082;SHT31;58740;50.672;18.690;2022-07-21T14:40:52;33.03;27.16
71082;SHT31;58740;50.672;18.690;2022-07-21T14:43:20;33.03;27.26
71082;SHT31;58740;50.672;18.690;2022-07-21T14:45:48;33.02;27.11
71082;SHT31;58740;50.672;18.690;2022-07-21T14:48:16;33.02;27.16
71082;SHT31;58740;50.672;18.690;2022-07-21T14:50:43;33.01;27.08
71082;SHT31;58740;50.672;18.690;2022-07-21T14:53:11;32.98;26.94
71082;SHT31;58740;50.672;18.690;2022-07-21T14:55:39;32.96;26.98
71082;SHT31;58740;50.672;18.690;2022-07-21T14:58:11;32.92;27.07
71082;SHT31;58740;50.672;18.690;2022-07-21T15:00:39;32.88;27.18
71082;SHT31;58740;50.672;18.690;2022-07-21T15:03:07;32.88;27.43
71082;SHT31;58740;50.672;18.690;2022-07-21T15:05:35;32.86;27.02
71082;SHT31;58740;50.672;18.690;2022-07-21T15:08:03;32.87;26.82
71082;SHT31;58740;50.672;18.690;2022-07-21T15:10:39;32.85;26.28
71082;SHT31;58740;50.672;18.690;2022-07-21T15:13:08;32.83;26.64
71082;SHT31;58740;50.672;18.690;2022-07-21T15:15:37;32.83;26.64
71082;SHT31;58740;50.672;18.690;2022-07-21T15:18:08;32.80;26.68
71082;SHT31;58740;50.672;18.690;2022-07-21T15:20:35;32.78;26.92
71082;SHT31;58740;50.672;18.690;2022-07-21T15:23:03;32.76;26.70
71082;SHT31;58740;50.672;18.690;2022-07-21T15:25:31;32.73;26.89
71082;SHT31;58740;50.672;18.690;2022-07-21T15:27:59;32.69;26.93
71082;SHT31;58740;50.672;18.690;2022-07-21T15:30:26;32.67;26.76
71082;SHT31;58740;50.672;18.690;2022-07-21T15:32:55;32.64;26.85
71082;SHT31;58740;50.672;18.690;2022-07-21T15:35:22;32.63;26.93
71082;SHT31;58740;50.672;18.690;2022-07-21T15:37:50;32.63;27.25
71082;SHT31;58740;50.672;18.690;2022-07-21T15:40:18;32.62;27.12
71082;SHT31;58740;50.672;18.690;2022-07-21T15:42:46;32.61;27.29
71082;SHT31;58740;50.672;18.690;2022-07-21T15:45:14;32.63;27.33
71082;SHT31;58740;50.672;18.690;2022-07-21T15:47:42;32.60;27.32
71082;SHT31;58740;50.672;18.690;2022-07-21T15:50:10;32.55;27.53
71082;SHT31;58740;50.672;18.690;2022-07-21T15:52:41;32.52;27.70
71082;SHT31;58740;50.672;18.690;2022-07-21T15:55:10;32.48;27.75
71082;SHT31;58740;50.672;18.690;2022-07-21T15:57:39;32.45;27.73
71082;SHT31;58740;50.672;18.690;2022-07-21T16:00:08;32.40;27.99
71082;SHT31;58740;50.672;18.690;2022-07-21T16:02:39;32.36;28.00
71082;SHT31;58740;50.672;18.690;2022-07-21T16:05:12;32.34;28.26
71082;SHT31;58740;50.672;18.690;2022-07-21T16:07:44;32.34;28.23